createdAt,value
2018-12-14T00:00:52.136Z,3.05
2018-12-14T00:03:17.875Z,2.70
2018-12-14T00:05:44.095Z,2.80
2018-12-14T00:08:10.779Z,2.75
2018-12-14T00:10:37.216Z,2.60
2018-12-14T00:15:27.046Z,2.62
2018-12-14T00:17:52.768Z,2.87
2018-12-14T00:20:18.607Z,2.37
2018-12-14T00:22:44.323Z,2.40
2018-12-14T00:25:10.152Z,2.70
2018-12-14T00:27:35.986Z,2.60
2018-12-14T00:30:02.046Z,2.33
2018-12-14T00:32:28.050Z,3.05
2018-12-14T00:35:00.766Z,2.40
2018-12-14T00:37:26.510Z,2.35
2018-12-14T00:39:52.226Z,2.37
2018-12-14T00:42:18.064Z,2.37
2018-12-14T00:44:43.891Z,2.50
2018-12-14T00:47:09.614Z,2.73
2018-12-14T00:49:35.346Z,2.80
2018-12-14T00:52:01.213Z,2.60
2018-12-14T00:54:26.944Z,2.60
2018-12-14T00:56:52.683Z,2.20
2018-12-14T00:59:18.402Z,2.10
2018-12-14T01:01:44.137Z,2.13
2018-12-14T01:04:09.882Z,2.07
2018-12-14T01:06:35.634Z,2.63
2018-12-14T01:09:01.463Z,2.40
2018-12-14T01:11:27.282Z,2.80
2018-12-14T01:13:53.103Z,2.83
2018-12-14T01:16:18.946Z,2.90
2018-12-14T01:18:44.671Z,3.23
2018-12-14T01:21:10.499Z,3.40
2018-12-14T01:23:36.254Z,3.50
2018-12-14T01:26:02.088Z,3.00
2018-12-14T01:28:27.917Z,3.67
2018-12-14T01:30:53.638Z,3.40
2018-12-14T01:33:19.358Z,3.43
2018-12-14T01:35:45.175Z,3.60
2018-12-14T01:38:10.903Z,3.57
2018-12-14T01:40:36.726Z,3.70
2018-12-14T01:43:02.596Z,3.80
2018-12-14T01:45:28.325Z,3.30
2018-12-14T01:47:54.051Z,3.83
2018-12-14T01:50:19.883Z,3.90
2018-12-14T01:52:45.614Z,3.40
2018-12-14T01:55:11.477Z,3.90
2018-12-14T01:57:37.430Z,3.90
2018-12-14T02:00:04.072Z,3.83
2018-12-14T02:02:29.822Z,3.87
2018-12-14T02:04:55.557Z,4.50
2018-12-14T02:07:21.395Z,4.40
2018-12-14T02:09:47.118Z,4.13
2018-12-14T02:12:12.934Z,4.43
2018-12-14T02:14:38.758Z,4.10
2018-12-14T02:17:04.486Z,4.33
2018-12-14T02:19:30.198Z,4.37
2018-12-14T02:21:55.922Z,4.50
2018-12-14T02:24:21.737Z,4.40
2018-12-14T02:26:47.547Z,4.43
2018-12-14T02:29:13.278Z,4.40
2018-12-14T02:31:38.999Z,4.23
2018-12-14T02:34:04.953Z,4.10
2018-12-14T02:36:30.794Z,3.90
2018-12-14T02:38:56.697Z,4.10
2018-12-14T02:41:22.482Z,4.07
2018-12-14T02:43:48.431Z,4.00
2018-12-14T02:46:14.287Z,4.33
2018-12-14T02:48:40.120Z,4.27
2018-12-14T02:51:05.964Z,3.83
2018-12-14T02:53:31.811Z,4.20
2018-12-14T02:55:57.647Z,4.00
2018-12-14T02:58:23.490Z,4.37
2018-12-14T03:00:49.250Z,3.90
2018-12-14T03:03:15.010Z,4.30
2018-12-14T03:05:40.750Z,4.10
2018-12-14T03:08:06.609Z,4.10
2018-12-14T03:10:32.661Z,4.47
2018-12-14T03:12:58.423Z,4.12
2018-12-14T03:15:24.243Z,4.80
2018-12-14T03:17:49.975Z,4.20
2018-12-14T03:20:15.733Z,4.20
2018-12-14T03:22:41.484Z,4.20
2018-12-14T03:25:07.233Z,4.20
2018-12-14T03:27:33.063Z,4.50
2018-12-14T03:29:58.824Z,4.40
2018-12-14T03:32:24.569Z,4.10
2018-12-14T03:34:50.418Z,4.47
2018-12-14T03:37:16.281Z,4.10
2018-12-14T03:39:42.024Z,4.10
2018-12-14T03:42:07.863Z,4.17
2018-12-14T03:44:33.618Z,4.60
2018-12-14T03:46:59.368Z,4.30
2018-12-14T03:49:25.117Z,4.03
2018-12-14T03:51:51.055Z,4.30
2018-12-14T03:54:16.895Z,4.67
2018-12-14T03:56:42.617Z,4.07
2018-12-14T03:59:08.458Z,4.23
2018-12-14T04:01:34.199Z,4.23
2018-12-14T04:03:59.967Z,4.37
2018-12-14T04:06:25.713Z,4.30
2018-12-14T04:08:51.466Z,5.00
2018-12-14T04:11:17.224Z,7.50
2018-12-14T04:13:42.992Z,6.77
2018-12-14T04:16:08.736Z,6.37
2018-12-14T04:18:34.481Z,4.90
2018-12-14T04:21:00.409Z,5.10
2018-12-14T04:23:26.182Z,4.53
2018-12-14T04:25:51.942Z,4.50
2018-12-14T04:28:17.831Z,4.73
2018-12-14T04:30:43.555Z,17.83
2018-12-14T04:33:09.413Z,9.87
2018-12-14T04:35:35.279Z,5.23
2018-12-14T04:38:01.211Z,6.43
2018-12-14T04:40:27.186Z,7.47
2018-12-14T04:42:59.900Z,5.60
2018-12-14T04:45:25.755Z,5.00
2018-12-14T04:47:51.494Z,4.20
2018-12-14T04:50:17.372Z,4.20
2018-12-14T04:52:43.237Z,4.70
2018-12-14T04:55:09.082Z,4.70
2018-12-14T04:57:34.914Z,4.63
2018-12-14T05:00:00.762Z,4.50
2018-12-14T05:02:26.515Z,4.13
2018-12-14T05:04:52.363Z,4.57
2018-12-14T05:07:18.197Z,4.97
2018-12-14T05:09:44.050Z,5.17
2018-12-14T05:12:09.916Z,5.00
2018-12-14T05:14:35.672Z,5.10
2018-12-14T05:17:01.502Z,5.30
2018-12-14T05:19:27.331Z,5.03
2018-12-14T05:21:53.699Z,4.67
2018-12-14T05:24:19.451Z,4.58
2018-12-14T05:26:45.180Z,5.00
2018-12-14T05:29:10.945Z,5.00
2018-12-14T05:31:36.681Z,5.43
2018-12-14T05:34:02.458Z,5.00
2018-12-14T05:36:28.240Z,5.13
2018-12-14T05:38:54.013Z,5.23
2018-12-14T05:41:19.886Z,4.97
2018-12-14T05:43:45.614Z,5.87
2018-12-14T05:46:11.452Z,6.03
2018-12-14T05:48:37.182Z,6.03
2018-12-14T05:51:03.006Z,6.00
2018-12-14T05:53:28.721Z,5.27
2018-12-14T05:55:54.551Z,5.50
2018-12-14T05:58:20.294Z,8.50
2018-12-14T06:00:46.044Z,6.80
2018-12-14T06:03:11.768Z,6.67
2018-12-14T06:05:37.626Z,8.53
2018-12-14T06:08:03.457Z,7.60
2018-12-14T06:10:29.190Z,8.07
2018-12-14T06:12:55.055Z,6.40
2018-12-14T06:15:20.931Z,5.03
2018-12-14T06:17:46.653Z,5.23
2018-12-14T06:20:12.509Z,4.83
2018-12-14T06:22:38.338Z,5.47
2018-12-14T06:25:04.142Z,5.07
2018-12-14T06:27:29.958Z,4.50
2018-12-14T06:29:55.719Z,4.63
2018-12-14T06:32:21.440Z,4.77
2018-12-14T06:34:47.213Z,4.63
2018-12-14T06:37:13.382Z,4.37
2018-12-14T06:39:39.119Z,4.70
2018-12-14T06:42:05.174Z,4.90
2018-12-14T06:44:31.039Z,4.90
2018-12-14T06:46:56.845Z,4.40
2018-12-14T06:49:22.650Z,4.17
2018-12-14T06:51:48.494Z,4.00
2018-12-14T06:54:14.252Z,4.00
2018-12-14T06:56:40.011Z,3.77
2018-12-14T06:59:05.834Z,3.20
2018-12-14T07:01:31.599Z,3.43
2018-12-14T07:03:57.326Z,3.13
2018-12-14T07:06:23.051Z,3.17
2018-12-14T07:08:48.762Z,4.57
2018-12-14T07:11:14.501Z,5.90
2018-12-14T07:13:40.313Z,4.50
2018-12-14T07:16:06.200Z,4.23
2018-12-14T07:18:32.034Z,4.70
2018-12-14T07:20:57.874Z,4.50
2018-12-14T07:23:23.603Z,4.13
2018-12-14T07:25:49.330Z,4.23
2018-12-14T07:28:15.151Z,4.13
2018-12-14T07:30:40.907Z,3.80
2018-12-14T07:33:06.731Z,4.40
2018-12-14T07:35:32.458Z,4.80
2018-12-14T07:37:58.186Z,4.40
2018-12-14T07:40:24.028Z,5.97
2018-12-14T07:42:49.790Z,4.17
2018-12-14T07:45:15.691Z,5.00
2018-12-14T07:47:41.414Z,4.57
2018-12-14T07:50:07.155Z,4.93
2018-12-14T07:52:32.879Z,4.23
2018-12-14T07:54:58.613Z,4.20
2018-12-14T07:57:24.478Z,5.03
2018-12-14T07:59:50.241Z,5.13
2018-12-14T08:02:16.110Z,6.63
2018-12-14T08:04:42.087Z,12.60
2018-12-14T08:07:08.160Z,6.67
2018-12-14T08:09:33.912Z,4.87
2018-12-14T08:12:01.723Z,3.87
2018-12-14T08:14:27.569Z,4.95
2018-12-14T08:16:53.424Z,4.40
2018-12-14T08:19:19.158Z,3.93
2018-12-14T08:21:45.016Z,4.23
2018-12-14T08:24:10.871Z,3.77
2018-12-14T08:26:36.742Z,4.10
2018-12-14T08:29:02.594Z,3.93
2018-12-14T08:31:28.333Z,4.60
2018-12-14T08:33:54.087Z,4.63
2018-12-14T08:36:19.860Z,4.93
2018-12-14T08:38:52.490Z,4.60
2018-12-14T08:41:18.230Z,4.92
2018-12-14T08:43:43.972Z,4.80
2018-12-14T08:46:09.842Z,5.13
2018-12-14T08:48:35.581Z,4.87
2018-12-14T08:51:01.342Z,5.13
2018-12-14T08:53:27.382Z,5.07
2018-12-14T08:55:53.269Z,5.00
2018-12-14T08:58:19.006Z,4.53
2018-12-14T09:00:44.730Z,4.80
2018-12-14T09:03:10.438Z,4.80
2018-12-14T09:05:36.182Z,4.83
2018-12-14T09:08:02.065Z,5.23
2018-12-14T09:10:27.934Z,6.03
2018-12-14T09:12:53.698Z,6.17
2018-12-14T09:15:19.421Z,5.97
2018-12-14T09:17:45.271Z,6.30
2018-12-14T09:20:11.118Z,6.00
2018-12-14T09:22:36.865Z,6.27
2018-12-14T09:27:35.860Z,5.80
2018-12-14T09:30:01.598Z,6.67
2018-12-14T09:32:27.322Z,6.63
2018-12-14T09:34:53.293Z,7.67
2018-12-14T09:37:19.162Z,6.03
2018-12-14T09:39:44.897Z,5.63
2018-12-14T09:42:17.707Z,12.93
2018-12-14T09:44:43.548Z,6.78
2018-12-14T09:47:09.284Z,26.10
2018-12-14T09:49:35.110Z,42.73
2018-12-14T09:52:00.824Z,25.90
2018-12-14T09:54:26.599Z,17.27
2018-12-14T09:56:52.337Z,10.00
2018-12-14T09:59:18.089Z,6.97
2018-12-14T10:01:43.928Z,14.93
2018-12-14T10:04:09.667Z,19.97
2018-12-14T10:06:35.389Z,8.30
2018-12-14T10:09:01.120Z,6.50
2018-12-14T10:11:26.950Z,6.20
2018-12-14T10:13:52.787Z,5.53
2018-12-14T10:16:18.602Z,5.60
2018-12-14T10:18:44.334Z,5.50
2018-12-14T10:21:10.169Z,6.40
2018-12-14T10:23:35.902Z,6.00
2018-12-14T10:26:01.618Z,5.90
2018-12-14T10:28:27.355Z,5.77
2018-12-14T10:30:53.198Z,5.37
2018-12-14T10:33:18.999Z,5.20
2018-12-14T10:35:44.751Z,5.00
2018-12-14T10:38:10.567Z,5.13
2018-12-14T10:40:36.289Z,5.40
2018-12-14T10:43:02.117Z,5.60
2018-12-14T10:45:27.955Z,6.63
2018-12-14T10:47:53.684Z,6.30
2018-12-14T10:50:22.095Z,6.70
2018-12-14T10:52:47.970Z,5.95
2018-12-14T10:55:13.721Z,6.30
2018-12-14T10:57:40.694Z,5.90
2018-12-14T11:00:12.371Z,5.78
2018-12-14T11:02:41.067Z,6.03
2018-12-14T11:05:06.975Z,5.65
2018-12-14T11:07:32.710Z,6.20
2018-12-14T11:09:58.426Z,5.90
2018-12-14T11:12:24.809Z,6.30
2018-12-14T11:14:50.582Z,5.87
2018-12-14T11:17:16.338Z,6.00
2018-12-14T11:19:43.321Z,5.83
2018-12-14T11:22:09.375Z,6.15
2018-12-14T11:24:35.869Z,6.67
2018-12-14T11:27:02.749Z,6.12
2018-12-14T11:29:28.479Z,6.45
2018-12-14T11:31:55.230Z,6.30
2018-12-14T11:34:20.955Z,6.75
2018-12-14T11:36:46.767Z,6.80
2018-12-14T11:39:12.527Z,6.27
2018-12-14T11:41:38.370Z,7.13
2018-12-14T11:44:04.294Z,7.03
2018-12-14T11:46:30.044Z,6.43
2018-12-14T11:48:56.078Z,7.80
2018-12-14T11:51:22.191Z,8.68
2018-12-14T11:53:47.968Z,8.53
2018-12-14T11:56:13.707Z,7.77
2018-12-14T11:58:39.471Z,7.43
2018-12-14T12:01:05.364Z,8.20
2018-12-14T12:03:31.118Z,8.43
2018-12-14T12:05:57.174Z,7.27
2018-12-14T12:08:22.993Z,7.35
2018-12-14T12:10:48.722Z,7.17
2018-12-14T12:13:14.450Z,7.27
2018-12-14T12:15:40.457Z,7.50
2018-12-14T12:18:06.310Z,8.28
2018-12-14T12:20:32.278Z,8.20
2018-12-14T12:22:58.022Z,7.77
2018-12-14T12:25:23.874Z,8.13
2018-12-14T12:27:49.618Z,8.47
2018-12-14T12:30:16.306Z,7.73
2018-12-14T12:32:42.500Z,8.08
2018-12-14T12:35:10.345Z,7.45
2018-12-14T12:37:36.339Z,8.15
2018-12-14T12:40:05.363Z,8.67
2018-12-14T12:42:31.246Z,8.20
2018-12-14T12:44:57.014Z,8.47
2018-12-14T12:47:22.874Z,8.03
2018-12-14T12:49:48.707Z,8.17
2018-12-14T12:52:14.562Z,7.50
2018-12-14T12:54:40.523Z,7.63
2018-12-14T12:57:06.282Z,8.20
2018-12-14T12:59:32.334Z,8.20
2018-12-14T13:01:58.650Z,8.25
2018-12-14T13:04:24.378Z,7.78
2018-12-14T13:06:50.109Z,8.83
2018-12-14T13:09:15.862Z,8.67
2018-12-14T13:11:42.113Z,9.10
2018-12-14T13:14:07.835Z,9.18
2018-12-14T13:16:33.563Z,10.10
2018-12-14T13:18:59.289Z,14.57
2018-12-14T13:21:25.117Z,12.00
2018-12-14T13:23:50.839Z,19.37
2018-12-14T13:26:16.587Z,20.67
2018-12-14T13:28:42.350Z,10.67
2018-12-14T13:31:08.082Z,11.87
2018-12-14T13:33:33.931Z,12.43
2018-12-14T13:35:59.743Z,14.40
2018-12-14T13:38:25.478Z,11.37
2018-12-14T13:40:51.415Z,14.33
2018-12-14T13:43:17.158Z,15.37
2018-12-14T13:45:43.112Z,16.20
2018-12-14T13:48:08.850Z,14.77
2018-12-14T13:50:34.677Z,21.10
2018-12-14T13:53:00.411Z,26.63
2018-12-14T13:55:26.123Z,33.33
2018-12-14T13:57:51.838Z,29.43
2018-12-14T14:00:17.698Z,39.60
2018-12-14T14:02:43.429Z,60.70
2018-12-14T14:05:09.156Z,31.00
2018-12-14T14:07:34.897Z,15.23
2018-12-14T14:10:00.604Z,11.40
2018-12-14T14:12:30.738Z,8.90
2018-12-14T14:14:54.119Z,22.10
2018-12-14T14:17:19.851Z,17.47
2018-12-14T14:19:46.008Z,20.70
2018-12-14T14:22:12.253Z,18.20
2018-12-14T14:24:38.032Z,15.88
2018-12-14T14:27:03.757Z,15.20
2018-12-14T14:29:29.501Z,17.63
2018-12-14T14:31:55.226Z,18.97
2018-12-14T14:34:20.979Z,21.37
2018-12-14T14:36:46.738Z,12.20
2018-12-14T14:39:12.474Z,11.53
2018-12-14T14:41:38.179Z,10.33
2018-12-14T14:44:03.926Z,10.90
2018-12-14T14:46:29.654Z,10.77
2018-12-14T14:48:55.386Z,14.13
2018-12-14T14:51:21.218Z,14.00
2018-12-14T14:53:47.026Z,14.17
2018-12-14T14:56:12.866Z,11.43
2018-12-14T14:58:38.695Z,11.77
2018-12-14T15:01:04.430Z,39.77
2018-12-14T15:03:30.366Z,59.70
2018-12-14T15:05:56.096Z,20.27
2018-12-14T15:08:21.846Z,11.27
2018-12-14T15:10:54.603Z,9.73
2018-12-14T15:13:20.331Z,10.63
2018-12-14T15:15:46.198Z,12.53
2018-12-14T15:18:12.038Z,55.33
2018-12-14T15:20:37.765Z,52.67
2018-12-14T15:23:03.584Z,17.07
2018-12-14T15:25:29.321Z,12.47
2018-12-14T15:27:55.175Z,11.27
2018-12-14T15:30:21.014Z,9.37
2018-12-14T15:32:46.734Z,9.57
2018-12-14T15:35:12.468Z,8.90
2018-12-14T15:37:38.227Z,9.40
2018-12-14T15:40:06.711Z,10.27
2018-12-14T15:42:32.452Z,10.30
2018-12-14T15:44:58.220Z,10.10
2018-12-14T15:47:23.986Z,10.57
2018-12-14T15:49:49.935Z,12.70
2018-12-14T15:52:15.682Z,14.77
2018-12-14T15:54:41.412Z,15.33
2018-12-14T15:57:07.170Z,15.17
2018-12-14T15:59:32.898Z,18.03
2018-12-14T16:01:58.794Z,16.10
2018-12-14T16:04:24.615Z,14.43
2018-12-14T16:06:50.346Z,14.00
2018-12-14T16:09:16.086Z,11.50
2018-12-14T16:11:41.818Z,10.47
2018-12-14T16:14:07.852Z,11.10
2018-12-14T16:16:33.815Z,11.03
2018-12-14T16:18:59.547Z,11.37
2018-12-14T16:21:25.444Z,9.57
2018-12-14T16:23:51.255Z,10.30
2018-12-14T16:26:17.211Z,9.70
2018-12-14T16:28:43.067Z,11.33
2018-12-14T16:31:08.818Z,11.20
2018-12-14T16:33:34.550Z,10.53
2018-12-14T16:36:00.410Z,10.50
2018-12-14T16:38:26.240Z,10.00
2018-12-14T16:40:51.990Z,10.03
2018-12-14T16:43:17.714Z,9.77
2018-12-14T16:45:43.427Z,9.43
2018-12-14T16:48:09.194Z,10.10
2018-12-14T16:50:35.222Z,10.43
2018-12-14T16:53:01.039Z,10.30
2018-12-14T16:55:26.784Z,11.53
2018-12-14T16:57:52.639Z,12.07
2018-12-14T17:00:18.452Z,12.87
2018-12-14T17:02:44.177Z,12.80
2018-12-14T17:05:10.102Z,12.83
2018-12-14T17:07:36.049Z,12.40
2018-12-14T17:10:03.174Z,12.30
2018-12-14T17:12:29.025Z,13.70
2018-12-14T17:14:54.872Z,12.13
2018-12-14T17:17:20.604Z,13.40
2018-12-14T17:19:46.321Z,10.03
2018-12-14T17:22:12.057Z,11.63
2018-12-14T17:24:44.862Z,10.53
2018-12-14T17:27:10.827Z,15.03
2018-12-14T17:29:36.682Z,13.93
2018-12-14T17:32:02.474Z,10.90
2018-12-14T17:34:29.062Z,11.07
2018-12-14T17:36:54.898Z,10.58
2018-12-14T17:39:20.758Z,11.70
2018-12-14T17:41:46.465Z,13.17
2018-12-14T17:44:12.234Z,17.17
2018-12-14T17:46:38.349Z,15.03
2018-12-14T17:49:04.230Z,13.25
2018-12-14T17:51:30.069Z,12.57
2018-12-14T17:53:55.808Z,11.10
2018-12-14T17:56:21.554Z,11.73
2018-12-14T17:58:47.310Z,12.43
2018-12-14T18:01:13.154Z,12.30
2018-12-14T18:03:38.878Z,13.50
2018-12-14T18:06:04.627Z,13.27
2018-12-14T18:08:30.400Z,20.80
2018-12-14T18:10:56.130Z,14.90
2018-12-14T18:13:21.850Z,24.73
2018-12-14T18:15:47.565Z,18.10
2018-12-14T18:18:13.309Z,14.70
2018-12-14T18:20:39.135Z,35.50
2018-12-14T18:23:04.955Z,19.63
2018-12-14T18:25:30.787Z,15.43
2018-12-14T18:27:56.506Z,17.00
2018-12-14T18:30:22.270Z,17.07
2018-12-14T18:32:48.111Z,16.73
2018-12-14T18:35:14.054Z,17.00
2018-12-14T18:37:39.811Z,19.10
2018-12-14T18:40:06.739Z,16.50
2018-12-14T18:42:32.462Z,17.45
2018-12-14T18:44:58.310Z,16.70
2018-12-14T18:47:24.134Z,17.73
2018-12-14T18:49:49.858Z,17.60
2018-12-14T18:52:15.599Z,17.07
2018-12-14T18:54:41.441Z,17.63
2018-12-14T18:57:07.162Z,17.10
2018-12-14T18:59:33.118Z,18.77
2018-12-14T19:01:59.087Z,16.48
2018-12-14T19:04:24.822Z,17.80
2018-12-14T19:06:58.006Z,18.20
2018-12-14T19:09:24.269Z,19.50
2018-12-14T19:11:50.107Z,20.23
2018-12-14T19:14:15.896Z,18.97
2018-12-14T19:16:41.619Z,20.00
2018-12-14T19:19:07.462Z,19.43
2018-12-14T19:21:33.187Z,21.53
2018-12-14T19:23:58.911Z,19.97
2018-12-14T19:26:24.738Z,20.77
2018-12-14T19:28:50.467Z,21.60
2018-12-14T19:31:16.302Z,22.20
2018-12-14T19:33:42.019Z,20.40
2018-12-14T19:36:07.774Z,20.27
2018-12-14T19:38:33.508Z,22.10
2018-12-14T19:40:59.262Z,25.17
2018-12-14T19:43:24.999Z,22.43
2018-12-14T19:45:50.818Z,20.37
2018-12-14T19:48:16.562Z,20.60
2018-12-14T19:50:42.281Z,19.77
2018-12-14T19:53:08.005Z,19.87
2018-12-14T19:55:33.720Z,22.23
2018-12-14T19:57:59.606Z,20.67
2018-12-14T20:00:25.474Z,21.00
2018-12-14T20:02:51.555Z,20.57
2018-12-14T20:05:17.303Z,21.07
2018-12-14T20:07:43.186Z,22.30
2018-12-14T20:10:09.110Z,28.40
2018-12-14T20:12:34.852Z,21.47
2018-12-14T20:15:00.694Z,20.73
2018-12-14T20:17:26.446Z,21.67
2018-12-14T20:19:52.283Z,21.47
2018-12-14T20:22:18.007Z,19.53
2018-12-14T20:24:43.934Z,20.73
2018-12-14T20:27:09.659Z,20.10
2018-12-14T20:29:35.574Z,19.17
2018-12-14T20:32:01.502Z,19.53
2018-12-14T20:34:27.218Z,20.50
2018-12-14T20:36:53.081Z,19.73
2018-12-14T20:39:18.788Z,19.77
2018-12-14T20:41:44.599Z,21.23
2018-12-14T20:44:10.338Z,19.63
2018-12-14T20:46:36.170Z,19.00
2018-12-14T20:49:02.142Z,19.97
2018-12-14T20:51:27.909Z,20.20
2018-12-14T20:53:53.790Z,18.17
2018-12-14T20:56:19.506Z,18.60
2018-12-14T20:58:45.306Z,18.97
2018-12-14T21:01:11.058Z,18.70
2018-12-14T21:03:36.797Z,19.40
2018-12-14T21:06:02.730Z,18.00
2018-12-14T21:08:28.467Z,17.87
2018-12-14T21:10:55.497Z,16.97
2018-12-14T21:13:21.655Z,17.73
2018-12-14T21:15:47.828Z,18.57
2018-12-14T21:18:15.356Z,17.37
2018-12-14T21:20:41.924Z,17.52
2018-12-14T21:23:07.934Z,16.90
2018-12-14T21:25:34.050Z,17.07
2018-12-14T21:27:59.851Z,16.85
2018-12-14T21:30:25.681Z,18.20
2018-12-14T21:32:51.416Z,17.70
2018-12-14T21:35:17.533Z,17.00
2018-12-14T21:37:43.803Z,16.95
2018-12-14T21:40:10.036Z,18.23
2018-12-14T21:42:36.201Z,17.05
2018-12-14T21:45:04.265Z,17.23
2018-12-14T21:47:30.375Z,16.75
2018-12-14T21:49:56.511Z,15.95
2018-12-14T21:52:22.361Z,17.02
2018-12-14T21:54:48.257Z,17.00
2018-12-14T21:57:14.000Z,15.27
2018-12-14T21:59:40.195Z,16.07
2018-12-14T22:02:06.033Z,15.75
2018-12-14T22:04:31.771Z,15.90
2018-12-14T22:06:57.485Z,15.90
2018-12-14T22:09:23.207Z,15.97
2018-12-14T22:11:48.920Z,16.40
2018-12-14T22:14:14.679Z,16.33
2018-12-14T22:16:40.431Z,15.47
2018-12-14T22:19:06.367Z,15.67
2018-12-14T22:21:32.178Z,16.17
2018-12-14T22:23:57.994Z,15.80
2018-12-14T22:26:23.840Z,14.87
2018-12-14T22:28:49.569Z,15.07
2018-12-14T22:31:15.315Z,15.00
2018-12-14T22:33:41.044Z,16.40
2018-12-14T22:36:06.895Z,14.90
2018-12-14T22:38:32.722Z,15.07
2018-12-14T22:40:58.431Z,15.37
2018-12-14T22:43:24.150Z,14.80
2018-12-14T22:45:49.891Z,15.37
2018-12-14T22:48:15.717Z,15.90
2018-12-14T22:50:41.444Z,14.93
2018-12-14T22:53:07.178Z,14.50
2018-12-14T22:55:33.011Z,14.73
2018-12-14T22:57:58.740Z,14.53
2018-12-14T23:00:24.919Z,14.27
2018-12-14T23:02:50.650Z,13.60
2018-12-14T23:05:16.411Z,14.57
2018-12-14T23:07:42.146Z,14.27
2018-12-14T23:10:07.997Z,15.00
2018-12-14T23:12:33.762Z,14.87
2018-12-14T23:14:59.490Z,14.50
2018-12-14T23:17:25.347Z,13.57
2018-12-14T23:19:51.130Z,15.63
2018-12-14T23:22:16.910Z,14.87
2018-12-14T23:24:49.551Z,14.63
2018-12-14T23:27:15.299Z,14.80
2018-12-14T23:29:41.048Z,14.10
2018-12-14T23:32:06.978Z,15.07
2018-12-14T23:34:32.807Z,15.13
2018-12-14T23:36:58.576Z,14.83
2018-12-14T23:39:24.673Z,14.87
2018-12-14T23:41:50.609Z,15.28
2018-12-14T23:44:16.330Z,15.00
2018-12-14T23:46:42.071Z,14.73
2018-12-14T23:49:07.782Z,15.17
2018-12-14T23:51:33.513Z,14.90
2018-12-14T23:53:59.787Z,14.47
2018-12-14T23:56:25.969Z,14.83
2018-12-14T23:58:51.703Z,14.78
